Time,TemperatureF,DewpointF,PressureIn,WindDirection,WindDirectionDegrees,WindSpeedMPH,WindSpeedGustMPH,Humidity,HourlyPrecipIn,Conditions,Clouds,dailyrainin,SoftwareType,DateUTC
2013-04-12 00:00:00,77.4,51.8,30.00,North,0,0.0,0.0,41,0.00,,SCT120,0.00,VWS V14.01,2013-04-12 04:00:00,
2013-04-12 00:05:00,77.0,52.2,30.00,North,0,0.0,0.0,42,0.00,,SCT120,0.00,VWS V14.01,2013-04-12 04:05:00,
2013-04-12 00:11:00,77.0,52.2,30.00,North,0,0.0,0.0,42,0.00,,SCT120,0.00,VWS V14.01,2013-04-12 04:11:00,
2013-04-12 00:16:00,77.2,53.0,30.00,North,0,0.0,0.0,43,0.00,,SCT120,0.00,VWS V14.01,2013-04-12 04:16:00,
2013-04-12 00:21:00,77.2,53.0,30.00,North,0,0.0,0.0,43,0.00,,SCT120,0.00,VWS V14.01,2013-04-12 04:21:00,
2013-04-12 00:26:00,77.2,53.0,30.00,North,0,0.0,0.0,43,0.00,,SCT120,0.00,VWS V14.01,2013-04-12 04:26:00,
2013-04-12 00:31:00,77.2,53.6,30.00,North,0,0.0,0.0,44,0.00,,SCT120,0.00,VWS V14.01,2013-04-12 04:31:00,
2013-04-12 00:36:00,77.2,53.6,30.00,North,0,0.0,0.0,44,0.00,,SCT120,0.00,VWS V14.01,2013-04-12 04:36:00,
2013-04-12 00:41:00,77.4,53.8,30.00,North,0,0.0,0.0,44,0.00,,SCT120,0.00,VWS V14.01,2013-04-12 04:41:00,
2013-04-12 00:46:00,77.4,53.8,30.00,North,0,0.0,0.0,44,0.00,,SCT120,0.00,VWS V14.01,2013-04-12 04:46:00,
2013-04-12 00:51:00,77.2,53.6,30.00,North,0,0.0,0.0,44,0.00,,SCT120,0.00,VWS V14.01,2013-04-12 04:51:00,
2013-04-12 00:56:00,76.6,53.7,30.00,North,0,0.0,0.0,45,0.00,,SCT120,0.00,VWS V14.01,2013-04-12 04:56:00,
2013-04-12 01:01:00,76.3,54.0,30.00,North,0,0.0,0.0,46,0.00,,SCT120,0.00,VWS V14.01,2013-04-12 05:01:00,
2013-04-12 01:06:00,76.3,54.6,30.00,North,0,0.0,0.0,47,0.00,,SCT120,0.00,VWS V14.01,2013-04-12 05:06:00,
2013-04-12 01:11:00,76.3,55.2,29.97,North,0,0.0,0.0,48,0.00,,SCT120,0.00,VWS V14.01,2013-04-12 05:11:00,
2013-04-12 01:16:00,76.1,55.6,29.97,North,0,0.0,0.0,49,0.00,,SCT120,0.00,VWS V14.01,2013-04-12 05:16:00,
2013-04-12 01:21:00,75.9,56.5,29.97,North,0,0.0,0.0,51,0.00,,SCT120,0.00,VWS V14.01,2013-04-12 05:21:00,
2013-04-12 01:26:00,75.7,56.9,29.97,North,0,0.0,0.0,52,0.00,,SCT120,0.00,VWS V14.01,2013-04-12 05:26:00,
2013-04-12 01:31:00,75.7,57.9,29.97,North,0,0.0,0.0,54,0.00,,SCT120,0.00,VWS V14.01,2013-04-12 05:31:00,
2013-04-12 01:36:00,76.1,58.8,29.97,North,0,0.0,0.0,55,0.00,,SCT120,0.00,VWS V14.01,2013-04-12 05:36:00,
2013-04-12 01:41:00,75.9,57.6,29.97,North,0,0.0,0.0,53,0.00,,SCT120,0.00,VWS V14.01,2013-04-12 05:41:00,
2013-04-12 01:46:00,75.4,57.6,29.97,North,0,0.0,0.0,54,0.00,,SCT120,0.00,VWS V14.01,2013-04-12 05:46:00,
2013-04-12 01:51:00,75.0,58.8,29.97,North,0,0.0,0.0,57,0.00,,SCT120,0.00,VWS V14.01,2013-04-12 05:51:00,
2013-04-12 01:56:00,75.0,59.3,29.97,North,0,0.0,0.0,58,0.00,,SCT120,0.00,VWS V14.01,2013-04-12 05:56:00,
2013-04-12 02:01:00,75.0,59.7,29.97,North,0,0.0,0.0,59,0.00,,SCT120,0.00,VWS V14.01,2013-04-12 06:01:00,
2013-04-12 02:06:00,75.0,60.2,29.97,North,0,0.0,0.0,60,0.00,,SCT120,0.00,VWS V14.01,2013-04-12 06:06:00,
2013-04-12 02:11:00,75.2,60.4,29.97,North,0,0.0,0.0,60,0.00,,SCT120,0.00,VWS V14.01,2013-04-12 06:11:00,
2013-04-12 02:16:00,75.2,59.9,29.97,North,0,0.0,0.0,59,0.00,,SCT120,0.00,VWS V14.01,2013-04-12 06:16:00,
2013-04-12 02:21:00,75.4,59.6,29.97,North,0,0.0,0.0,58,0.00,,SCT120,0.00,VWS V14.01,2013-04-12 06:21:00,
2013-04-12 02:26:00,75.0,59.7,29.97,North,0,0.0,0.0,59,0.00,,SCT120,0.00,VWS V14.01,2013-04-12 06:26:00,
2013-04-12 02:31:00,74.7,59.4,29.97,North,0,0.0,0.0,59,0.00,,SCT120,0.00,VWS V14.01,2013-04-12 06:31:00,
2013-04-12 02:36:00,74.5,59.7,29.97,North,0,0.0,0.0,60,0.00,,SCT120,0.00,VWS V14.01,2013-04-12 06:36:00,
2013-04-12 02:41:00,74.5,60.2,29.97,North,0,0.0,0.0,61,0.00,,SCT120,0.00,VWS V14.01,2013-04-12 06:41:00,
2013-04-12 02:46:00,74.5,60.2,29.97,North,0,0.0,0.0,61,0.00,,SCT120,0.00,VWS V14.01,2013-04-12 06:46:00,
2013-04-12 02:51:00,74.7,59.9,29.97,North,0,0.0,0.0,60,0.00,,SCT120,0.00,VWS V14.01,2013-04-12 06:51:00,
2013-04-12 02:56:00,74.8,60.0,29.97,North,0,0.0,0.0,60,0.00,,SCT120,0.00,VWS V14.01,2013-04-12 06:56:00,
2013-04-12 03:01:00,75.0,59.7,29.97,North,0,0.0,0.0,59,0.00,,SCT120,0.00,VWS V14.01,2013-04-12 07:01:00,
2013-04-12 03:06:00,74.7,59.4,29.97,North,0,0.0,0.0,59,0.00,,SCT120,0.00,VWS V14.01,2013-04-12 07:06:00,
2013-04-12 03:11:00,74.3,59.5,29.97,North,0,0.0,0.0,60,0.00,,SCT120,0.00,VWS V14.01,2013-04-12 07:11:00,
2013-04-12 03:16:00,74.1,60.3,29.97,North,0,0.0,0.0,62,0.00,,SCT120,0.00,VWS V14.01,2013-04-12 07:16:00,
2013-04-12 03:21:00,73.9,60.6,29.97,North,0,0.0,0.0,63,0.00,,SCT120,0.00,VWS V14.01,2013-04-12 07:21:00,
2013-04-12 03:26:00,73.9,60.6,29.97,North,0,0.0,0.0,63,0.00,,SCT120,0.00,VWS V14.01,2013-04-12 07:26:00,
2013-04-12 03:31:00,73.9,60.6,29.97,North,0,0.0,0.0,63,0.00,,SCT120,0.00,VWS V14.01,2013-04-12 07:31:00,
2013-04-12 03:36:00,73.9,60.1,29.97,North,0,0.0,0.0,62,0.00,,SCT120,0.00,VWS V14.01,2013-04-12 07:36:00,
2013-04-12 03:41:00,73.8,60.4,29.94,North,0,0.0,0.0,63,0.00,,SCT120,0.00,VWS V14.01,2013-04-12 07:41:00,
2013-04-12 03:47:00,73.8,60.4,29.94,North,0,0.0,0.0,63,0.00,,SCT120,0.00,VWS V14.01,2013-04-12 07:47:00,
2013-04-12 03:52:00,73.9,61.0,29.94,North,0,0.0,0.0,64,0.00,,SCT120,0.00,VWS V14.01,2013-04-12 07:52:00,
2013-04-12 03:57:00,74.3,61.3,29.94,North,0,0.0,0.0,64,0.00,,SCT120,0.00,VWS V14.01,2013-04-12 07:57:00,
2013-04-12 04:02:00,74.3,60.9,29.94,North,0,0.0,0.0,63,0.00,,SCT120,0.00,VWS V14.01,2013-04-12 08:02:00,
2013-04-12 04:07:00,73.9,60.6,29.94,North,0,0.0,0.0,63,0.00,,SCT120,0.00,VWS V14.01,2013-04-12 08:07:00,
2013-04-12 04:12:00,73.9,60.6,29.94,North,0,0.0,0.0,63,0.00,,SCT120,0.00,VWS V14.01,2013-04-12 08:12:00,
2013-04-12 04:17:00,73.8,60.8,29.94,North,0,0.0,0.0,64,0.00,,SCT120,0.00,VWS V14.01,2013-04-12 08:17:00,
2013-04-12 04:22:00,73.8,60.8,29.94,North,0,0.0,0.0,64,0.00,,SCT120,0.00,VWS V14.01,2013-04-12 08:22:00,
2013-04-12 04:27:00,73.4,60.5,29.97,North,0,0.0,0.0,64,0.00,,SCT120,0.00,VWS V14.01,2013-04-12 08:27:00,
2013-04-12 04:32:00,73.4,60.9,29.97,North,0,0.0,0.0,65,0.00,,SCT120,0.00,VWS V14.01,2013-04-12 08:32:00,
2013-04-12 04:37:00,73.2,61.2,29.97,North,0,0.0,0.0,66,0.00,,SCT120,0.00,VWS V14.01,2013-04-12 08:37:00,
2013-04-12 04:42:00,73.2,61.2,29.97,North,0,0.0,0.0,66,0.00,,SCT120,0.00,VWS V14.01,2013-04-12 08:42:00,
2013-04-12 04:47:00,73.2,61.6,29.97,North,0,0.0,0.0,67,0.00,,SCT120,0.00,VWS V14.01,2013-04-12 08:47:00,
2013-04-12 04:52:00,73.2,61.6,29.97,North,0,0.0,0.0,67,0.00,,SCT120,0.00,VWS V14.01,2013-04-12 08:52:00,
2013-04-12 04:57:00,73.4,61.8,29.97,North,0,0.0,0.0,67,0.00,,SCT120,0.00,VWS V14.01,2013-04-12 08:57:00,
2013-04-12 05:02:00,73.4,61.8,29.97,North,0,0.0,0.0,67,0.00,,SCT120,0.00,VWS V14.01,2013-04-12 09:02:00,
2013-04-12 05:07:00,73.4,61.8,29.97,North,0,0.0,0.0,67,0.00,,SCT120,0.00,VWS V14.01,2013-04-12 09:07:00,
2013-04-12 05:12:00,73.2,61.6,29.97,North,0,0.0,0.0,67,0.00,,SCT120,0.00,VWS V14.01,2013-04-12 09:12:00,
2013-04-12 05:17:00,73.4,61.8,29.97,North,0,0.0,0.0,67,0.00,,SCT120,0.00,VWS V14.01,2013-04-12 09:17:00,
2013-04-12 05:22:00,73.6,62.0,29.97,North,0,0.0,0.0,67,0.00,,SCT120,0.00,VWS V14.01,2013-04-12 09:22:00,
2013-04-12 05:27:00,73.8,62.1,29.97,North,0,0.0,0.0,67,0.00,,SCT120,0.00,VWS V14.01,2013-04-12 09:27:00,
2013-04-12 05:32:00,73.8,61.7,29.97,North,0,0.0,0.0,66,0.00,,SCT120,0.00,VWS V14.01,2013-04-12 09:32:00,
2013-04-12 05:37:00,73.8,61.3,29.97,North,0,0.0,0.0,65,0.00,,SCT120,0.00,VWS V14.01,2013-04-12 09:37:00,
2013-04-12 05:42:00,73.8,61.3,29.97,North,0,0.0,0.0,65,0.00,,SCT120,0.00,VWS V14.01,2013-04-12 09:42:00,
2013-04-12 05:47:00,73.6,61.1,29.97,North,0,0.0,0.0,65,0.00,,SCT120,0.00,VWS V14.01,2013-04-12 09:47:00,
2013-04-12 05:52:00,73.4,61.4,29.97,North,0,0.0,0.0,66,0.00,,SCT120,0.00,VWS V14.01,2013-04-12 09:52:00,
2013-04-12 05:57:00,73.2,61.6,29.97,North,0,0.0,0.0,67,0.00,,SCT120,0.00,VWS V14.01,2013-04-12 09:57:00,
2013-04-12 06:02:00,73.2,62.0,29.97,North,0,0.0,0.0,68,0.00,,SCT120,0.00,VWS V14.01,2013-04-12 10:02:00,
2013-04-12 06:07:00,73.4,61.8,29.97,North,0,0.0,0.0,67,0.00,,SCT120,0.00,VWS V14.01,2013-04-12 10:07:00,
2013-04-12 06:12:00,73.4,61.8,29.97,North,0,0.0,0.0,67,0.00,,SCT120,0.00,VWS V14.01,2013-04-12 10:12:00,
2013-04-12 06:17:00,73.4,61.4,29.97,North,0,0.0,0.0,66,0.00,,SCT120,0.00,VWS V14.01,2013-04-12 10:17:00,
2013-04-12 06:22:00,73.0,61.5,29.97,North,0,0.0,0.0,67,0.00,,SCT120,0.00,VWS V14.01,2013-04-12 10:22:00,
2013-04-12 06:27:00,73.0,61.9,29.97,North,0,0.0,0.0,68,0.00,,SCT120,0.00,VWS V14.01,2013-04-12 10:27:00,
2013-04-12 06:32:00,73.0,61.9,29.97,North,0,0.0,0.0,68,0.00,,SCT120,0.00,VWS V14.01,2013-04-12 10:32:00,
2013-04-12 06:37:00,73.2,62.0,29.97,North,0,0.0,0.0,68,0.00,,SCT120,0.00,VWS V14.01,2013-04-12 10:37:00,
2013-04-12 06:42:00,73.4,62.2,30.00,North,0,0.0,0.0,68,0.00,,SCT120,0.00,VWS V14.01,2013-04-12 10:42:00,
2013-04-12 06:47:00,73.9,62.7,30.00,North,0,0.0,0.0,68,0.00,,SCT120,0.00,VWS V14.01,2013-04-12 10:47:00,
2013-04-12 06:52:00,74.3,63.1,30.00,North,0,0.0,0.0,68,0.00,,SCT120,0.00,VWS V14.01,2013-04-12 10:52:00,
2013-04-12 06:57:00,74.7,63.0,30.00,North,0,0.0,0.0,67,0.00,,SCT120,0.00,VWS V14.01,2013-04-12 10:57:00,
2013-04-12 07:02:00,75.0,62.9,30.00,North,0,0.0,0.0,66,0.00,,SCT120,0.00,VWS V14.01,2013-04-12 11:02:00,
2013-04-12 07:07:00,75.2,62.2,30.00,North,0,0.0,0.0,64,0.00,,SCT120,0.00,VWS V14.01,2013-04-12 11:07:00,
2013-04-12 07:12:00,75.4,62.4,30.00,North,0,0.0,0.0,64,0.00,,SCT120,0.00,VWS V14.01,2013-04-12 11:12:00,
2013-04-12 07:17:00,75.9,62.9,30.00,North,0,0.0,0.0,64,0.00,,SCT120,0.00,VWS V14.01,2013-04-12 11:17:00,
2013-04-12 07:22:00,76.5,62.9,30.00,North,0,0.0,0.0,63,0.00,,SCT120,0.00,VWS V14.01,2013-04-12 11:22:00,
2013-04-12 07:27:00,76.8,63.3,30.00,North,0,0.0,0.0,63,0.00,,SCT120,0.00,VWS V14.01,2013-04-12 11:27:00,
2013-04-12 07:32:00,77.5,63.0,30.00,North,0,0.0,0.0,61,0.00,,SCT120,0.00,VWS V14.01,2013-04-12 11:32:00,
2013-04-12 07:37:00,77.9,62.0,30.00,North,0,0.0,0.0,58,0.00,,SCT120,0.00,VWS V14.01,2013-04-12 11:37:00,
2013-04-12 07:42:00,78.4,61.0,30.00,North,0,0.0,0.0,55,0.00,,SCT120,0.00,VWS V14.01,2013-04-12 11:42:00,
2013-04-12 07:47:00,78.8,58.0,30.00,North,0,0.0,0.0,49,0.00,,SCT120,0.00,VWS V14.01,2013-04-12 11:47:00,
2013-04-12 07:52:00,79.2,57.8,30.00,North,0,0.0,0.0,48,0.00,,SCT120,0.00,VWS V14.01,2013-04-12 11:52:00,
2013-04-12 07:57:00,79.7,57.7,30.00,North,0,0.0,0.0,47,0.00,,SCT120,0.00,VWS V14.01,2013-04-12 11:57:00,
2013-04-12 08:02:00,80.1,58.0,30.00,North,0,0.0,0.0,47,0.00,,SCT120,0.00,VWS V14.01,2013-04-12 12:02:00,
2013-04-12 08:07:00,80.4,57.2,30.00,North,0,0.0,0.0,45,0.00,,SCT120,0.00,VWS V14.01,2013-04-12 12:07:00,
2013-04-12 08:12:00,80.8,57.5,30.00,North,0,0.0,0.0,45,0.00,,SCT120,0.00,VWS V14.01,2013-04-12 12:12:00,
2013-04-12 08:17:00,81.0,56.4,30.00,North,0,0.0,0.0,43,0.00,,SCT120,0.00,VWS V14.01,2013-04-12 12:17:00,
2013-04-12 08:22:00,81.7,56.4,30.00,North,0,0.0,0.0,42,0.00,,SCT120,0.00,VWS V14.01,2013-04-12 12:22:00,
2013-04-12 08:27:00,81.9,55.9,30.00,North,0,0.0,0.0,41,0.00,,SCT120,0.00,VWS V14.01,2013-04-12 12:27:00,
2013-04-12 08:33:00,82.0,55.4,30.00,North,0,0.0,0.0,40,0.00,,SCT120,0.00,VWS V14.01,2013-04-12 12:33:00,
2013-04-12 08:38:00,82.2,54.8,30.00,North,0,0.0,0.0,39,0.00,,SCT120,0.00,VWS V14.01,2013-04-12 12:38:00,
2013-04-12 08:43:00,82.6,51.4,30.03,North,0,0.0,0.0,34,0.00,,SCT120,0.00,VWS V14.01,2013-04-12 12:43:00,
2013-04-12 08:48:00,83.3,52.0,30.03,North,0,0.0,0.0,34,0.00,,SCT120,0.00,VWS V14.01,2013-04-12 12:48:00,
2013-04-12 08:53:00,84.0,51.8,30.03,North,0,0.0,0.0,33,0.00,,SCT120,0.00,VWS V14.01,2013-04-12 12:53:00,
2013-04-12 08:58:00,83.8,50.9,30.03,North,0,0.0,0.0,32,0.00,,SCT120,0.00,VWS V14.01,2013-04-12 12:58:00,
2013-04-12 09:03:00,83.1,50.2,30.03,North,0,0.0,0.0,32,0.00,,SCT120,0.00,VWS V14.01,2013-04-12 13:03:00,
2013-04-12 09:08:00,82.8,49.9,30.03,North,0,0.0,0.0,32,0.00,,SCT120,0.00,VWS V14.01,2013-04-12 13:08:00,
2013-04-12 09:13:00,82.6,48.9,30.03,North,0,0.0,0.0,31,0.00,,SCT120,0.00,VWS V14.01,2013-04-12 13:13:00,
2013-04-12 09:18:00,82.6,48.9,30.03,North,0,0.0,0.0,31,0.00,,SCT120,0.00,VWS V14.01,2013-04-12 13:18:00,
2013-04-12 09:23:00,82.6,48.9,30.03,North,0,0.0,0.0,31,0.00,,SCT120,0.00,VWS V14.01,2013-04-12 13:23:00,
2013-04-12 09:28:00,82.6,48.9,30.03,North,0,0.0,0.0,31,0.00,,SCT120,0.00,VWS V14.01,2013-04-12 13:28:00,
2013-04-12 09:33:00,82.9,48.3,30.03,North,0,0.0,0.0,30,0.00,,SCT120,0.00,VWS V14.01,2013-04-12 13:33:00,
2013-04-12 09:38:00,83.3,47.8,30.03,North,0,0.0,0.0,29,0.00,,SCT120,0.00,VWS V14.01,2013-04-12 13:38:00,
2013-04-12 09:43:00,83.7,49.0,30.03,North,0,0.0,0.0,30,0.00,,SCT120,0.00,VWS V14.01,2013-04-12 13:43:00,
2013-04-12 09:48:00,84.0,49.3,30.03,North,0,0.0,0.0,30,0.00,,SCT120,0.00,VWS V14.01,2013-04-12 13:48:00,
2013-04-12 09:53:00,84.4,48.7,30.03,North,0,0.0,0.0,29,0.00,,SCT120,0.00,VWS V14.01,2013-04-12 13:53:00,
2013-04-12 09:58:00,84.9,49.2,30.03,North,0,0.0,0.0,29,0.00,,SCT120,0.00,VWS V14.01,2013-04-12 13:58:00,
2013-04-12 10:03:00,85.6,47.9,30.03,North,0,0.0,0.0,27,0.00,,SCT120,0.00,VWS V14.01,2013-04-12 14:03:00,
2013-04-12 10:08:00,86.4,43.1,30.03,North,0,0.0,0.0,22,0.00,,SCT120,0.00,VWS V14.01,2013-04-12 14:08:00,
2013-04-12 10:13:00,87.4,41.5,30.03,North,0,0.0,0.0,20,0.00,,SCT120,0.00,VWS V14.01,2013-04-12 14:13:00,
2013-04-12 10:18:00,87.8,40.5,30.03,North,0,0.0,0.0,19,0.00,,SCT120,0.00,VWS V14.01,2013-04-12 14:18:00,
2013-04-12 10:23:00,88.5,41.0,30.03,North,0,0.0,0.0,19,0.00,,SCT120,0.00,VWS V14.01,2013-04-12 14:23:00,
2013-04-12 10:28:00,88.2,40.8,30.03,North,0,0.0,0.0,19,0.00,,SCT120,0.00,VWS V14.01,2013-04-12 14:28:00,
2013-04-12 10:33:00,87.4,40.2,30.03,North,0,0.0,0.0,19,0.00,,SCT120,0.00,VWS V14.01,2013-04-12 14:33:00,
2013-04-12 10:38:00,87.4,40.2,30.03,North,0,0.0,0.0,19,0.00,,SCT120,0.00,VWS V14.01,2013-04-12 14:38:00,
2013-04-12 10:43:00,87.1,39.9,30.03,North,0,0.0,0.0,19,0.00,,SCT120,0.00,VWS V14.01,2013-04-12 14:43:00,
2013-04-12 10:48:00,87.8,40.5,30.03,North,0,0.0,0.0,19,0.00,,SCT120,0.00,VWS V14.01,2013-04-12 14:48:00,
2013-04-12 10:53:00,88.9,39.9,30.03,North,0,0.0,0.0,18,0.00,,SCT120,0.00,VWS V14.01,2013-04-12 14:53:00,
2013-04-12 10:58:00,88.2,34.7,30.00,North,0,0.0,0.0,15,0.00,,SCT120,0.00,VWS V14.01,2013-04-12 14:58:00,
2013-04-12 11:03:00,88.2,34.7,30.00,North,0,0.0,0.0,15,0.00,,SCT120,0.00,VWS V14.01,2013-04-12 15:03:00,
2013-04-12 11:08:00,88.0,34.6,30.00,North,0,0.0,0.0,15,0.00,,SCT120,0.00,VWS V14.01,2013-04-12 15:08:00,
2013-04-12 11:13:00,87.6,38.9,30.00,North,0,0.0,0.0,18,0.00,,SCT120,0.00,VWS V14.01,2013-04-12 15:13:00,
2013-04-12 11:18:00,87.3,38.6,30.00,North,0,0.0,0.0,18,0.00,,SCT120,0.00,VWS V14.01,2013-04-12 15:18:00,
2013-04-12 11:23:00,88.0,39.2,30.00,North,0,0.0,0.0,18,0.00,,SCT120,0.00,VWS V14.01,2013-04-12 15:23:00,
2013-04-12 11:28:00,88.0,39.2,30.00,North,0,0.0,0.0,18,0.00,,SCT120,0.00,VWS V14.01,2013-04-12 15:28:00,
2013-04-12 11:34:00,88.0,39.2,30.00,North,0,0.0,0.0,18,0.00,,SCT120,0.00,VWS V14.01,2013-04-12 15:34:00,
2013-04-12 11:39:00,87.3,38.6,30.00,North,0,0.0,0.0,18,0.00,,SCT120,0.00,VWS V14.01,2013-04-12 15:39:00,
2013-04-12 11:44:00,87.3,41.3,30.00,North,0,0.0,0.0,20,0.00,,SCT120,0.00,VWS V14.01,2013-04-12 15:44:00,
2013-04-12 11:49:00,87.6,40.3,30.00,North,0,0.0,0.0,19,0.00,,SCT120,0.00,VWS V14.01,2013-04-12 15:49:00,
2013-04-12 11:54:00,89.1,40.1,30.00,North,0,0.0,0.0,18,0.00,,SCT120,0.00,VWS V14.01,2013-04-12 15:54:00,
2013-04-12 11:59:00,89.6,39.1,30.00,North,0,0.0,0.0,17,0.00,,SCT120,0.00,VWS V14.01,2013-04-12 15:59:00,
2013-04-12 12:04:00,89.8,36.0,30.00,North,0,0.0,0.0,15,0.00,,SCT120,0.00,VWS V14.01,2013-04-12 16:04:00,
2013-04-12 12:09:00,89.6,35.9,30.00,North,0,0.0,0.0,15,0.00,,SCT120,0.00,VWS V14.01,2013-04-12 16:09:00,
2013-04-12 12:14:00,89.4,40.4,30.00,North,0,0.0,0.0,18,0.00,,SCT120,0.00,VWS V14.01,2013-04-12 16:14:00,
2013-04-12 12:19:00,90.0,36.2,30.00,North,0,0.0,0.0,15,0.00,,SCT120,0.00,VWS V14.01,2013-04-12 16:19:00,
2013-04-12 12:24:00,90.5,31.0,29.97,North,0,0.0,0.0,12,0.00,,SCT120,0.00,VWS V14.01,2013-04-12 16:24:00,
2013-04-12 12:29:00,90.3,30.9,29.97,North,0,0.0,0.0,12,0.00,,SCT120,0.00,VWS V14.01,2013-04-12 16:29:00,
2013-04-12 12:34:00,89.6,30.3,29.97,North,0,0.0,0.0,12,0.00,,SCT120,0.00,VWS V14.01,2013-04-12 16:34:00,
2013-04-12 12:39:00,88.9,39.9,29.97,North,0,0.0,0.0,18,0.00,,SCT120,0.00,VWS V14.01,2013-04-12 16:39:00,
2013-04-12 12:44:00,88.7,39.8,29.97,North,0,0.0,0.0,18,0.00,,SCT120,0.00,VWS V14.01,2013-04-12 16:44:00,
2013-04-12 12:49:00,88.7,31.6,29.97,North,0,0.0,0.0,13,0.00,,SCT120,0.00,VWS V14.01,2013-04-12 16:49:00,
2013-04-12 12:54:00,88.9,39.9,29.97,North,0,0.0,0.0,18,0.00,,SCT120,0.00,VWS V14.01,2013-04-12 16:54:00,
2013-04-12 12:59:00,89.2,35.6,29.97,North,0,0.0,0.0,15,0.00,,SCT120,0.00,VWS V14.01,2013-04-12 16:59:00,
2013-04-12 13:04:00,88.7,43.8,29.97,North,0,0.0,0.0,21,0.00,,SCT120,0.00,VWS V14.01,2013-04-12 17:04:00,
2013-04-12 13:09:00,88.2,46.9,29.97,North,0,0.0,0.0,24,0.00,,SCT120,0.00,VWS V14.01,2013-04-12 17:09:00,
2013-04-12 13:14:00,87.3,47.2,29.97,North,0,0.0,0.0,25,0.00,,SCT120,0.00,VWS V14.01,2013-04-12 17:14:00,
2013-04-12 13:19:00,86.7,45.7,29.97,North,0,0.0,0.0,24,0.00,,SCT120,0.00,VWS V14.01,2013-04-12 17:19:00,
2013-04-12 13:24:00,86.9,46.9,29.97,North,0,0.0,0.0,25,0.00,,SCT120,0.00,VWS V14.01,2013-04-12 17:24:00,
2013-04-12 13:29:00,86.7,47.8,29.97,North,0,0.0,0.0,26,0.00,,SCT120,0.00,VWS V14.01,2013-04-12 17:29:00,
2013-04-12 13:34:00,87.1,50.1,29.97,North,0,0.0,0.0,28,0.00,,SCT120,0.00,VWS V14.01,2013-04-12 17:34:00,
2013-04-12 13:39:00,87.8,50.7,29.97,North,0,0.0,0.0,28,0.00,,SCT120,0.00,VWS V14.01,2013-04-12 17:39:00,
2013-04-12 13:44:00,87.6,44.1,29.97,North,0,0.0,0.0,22,0.00,,SCT120,0.00,VWS V14.01,2013-04-12 17:44:00,
2013-04-12 13:49:00,87.6,44.1,29.97,North,0,0.0,0.0,22,0.00,,SCT120,0.00,VWS V14.01,2013-04-12 17:49:00,
2013-04-12 13:54:00,88.2,43.3,29.97,North,0,0.0,0.0,21,0.00,,SCT120,0.00,VWS V14.01,2013-04-12 17:54:00,
2013-04-12 13:59:00,90.0,40.8,29.97,North,0,0.0,0.0,18,0.00,,SCT120,0.00,VWS V14.01,2013-04-12 17:59:00,
2013-04-12 14:04:00,91.6,35.7,29.97,North,0,0.0,0.0,14,0.00,,SCT120,0.00,VWS V14.01,2013-04-12 18:04:00,
2013-04-12 14:09:00,90.9,31.3,29.94,North,0,0.0,0.0,12,0.00,,SCT120,0.00,VWS V14.01,2013-04-12 18:09:00,
2013-04-12 14:14:00,91.8,35.8,29.94,North,0,0.0,0.0,14,0.00,,SCT120,0.00,VWS V14.01,2013-04-12 18:14:00,
2013-04-12 14:19:00,90.7,41.4,29.94,North,0,0.0,0.0,18,0.00,,SCT120,0.00,VWS V14.01,2013-04-12 18:19:00,
2013-04-12 14:24:00,90.1,42.4,29.94,North,0,0.0,0.0,19,0.00,,SCT120,0.00,VWS V14.01,2013-04-12 18:24:00,
2013-04-12 14:30:00,90.3,41.1,29.94,North,0,0.0,0.0,18,0.00,,SCT120,0.00,VWS V14.01,2013-04-12 18:30:00,
2013-04-12 15:26:00,89.1,41.5,29.94,North,0,0.0,0.0,19,0.00,,SCT120,0.00,VWS V14.01,2013-04-12 19:26:00,
2013-04-12 15:27:00,89.2,41.6,29.94,North,0,0.0,0.0,19,0.00,,SCT120,0.00,VWS V14.01,2013-04-12 19:27:00,
2013-04-12 15:32:00,90.1,41.0,29.94,North,0,0.0,0.0,18,0.00,,SCT120,0.00,VWS V14.01,2013-04-12 19:32:00,
2013-04-12 15:38:00,90.5,41.3,29.94,North,0,0.0,0.0,18,0.00,,SCT120,0.00,VWS V14.01,2013-04-12 19:38:00,
2013-04-12 15:43:00,90.0,42.2,29.94,North,0,0.0,0.0,19,0.00,,SCT120,0.00,VWS V14.01,2013-04-12 19:43:00,
2013-04-12 15:48:00,90.1,41.0,29.94,North,0,0.0,0.0,18,0.00,,SCT120,0.00,VWS V14.01,2013-04-12 19:48:00,
2013-04-12 15:53:00,89.6,41.9,29.94,North,0,0.0,0.0,19,0.00,,SCT120,0.00,VWS V14.01,2013-04-12 19:53:00,
2013-04-12 15:58:00,89.6,41.9,29.91,North,0,0.0,0.0,19,0.00,,SCT120,0.00,VWS V14.01,2013-04-12 19:58:00,
2013-04-12 16:03:00,90.1,42.4,29.91,North,0,0.0,0.0,19,0.00,,SCT120,0.00,VWS V14.01,2013-04-12 20:03:00,
2013-04-12 16:08:00,90.5,44.0,29.91,North,0,0.0,0.0,20,0.00,,SCT120,0.00,VWS V14.01,2013-04-12 20:08:00,
2013-04-12 16:13:00,90.0,43.5,29.94,North,0,0.0,0.0,20,0.00,,SCT120,0.00,VWS V14.01,2013-04-12 20:13:00,
2013-04-12 16:18:00,90.1,43.7,29.94,North,0,0.0,0.0,20,0.00,,SCT120,0.00,VWS V14.01,2013-04-12 20:18:00,
2013-04-12 16:23:00,89.6,43.3,29.94,North,0,0.0,0.0,20,0.00,,SCT120,0.00,VWS V14.01,2013-04-12 20:23:00,
2013-04-12 16:28:00,89.6,43.3,29.94,North,0,0.0,0.0,20,0.00,,SCT120,0.00,VWS V14.01,2013-04-12 20:28:00,
2013-04-12 16:33:00,90.1,43.7,29.94,North,0,0.0,0.0,20,0.00,,SCT120,0.00,VWS V14.01,2013-04-12 20:33:00,
2013-04-12 16:38:00,89.4,44.4,29.94,North,0,0.0,0.0,21,0.00,,SCT120,0.00,VWS V14.01,2013-04-12 20:38:00,
2013-04-12 16:43:00,88.2,45.7,29.94,North,0,0.0,0.0,23,0.00,,SCT120,0.00,VWS V14.01,2013-04-12 20:43:00,
2013-04-12 16:48:00,88.2,47.9,29.94,North,0,0.0,0.0,25,0.00,,SCT120,0.00,VWS V14.01,2013-04-12 20:48:00,
2013-04-12 16:53:00,87.8,49.7,29.94,North,0,0.0,0.0,27,0.00,,SCT120,0.00,VWS V14.01,2013-04-12 20:53:00,
2013-04-12 16:58:00,87.3,49.2,29.94,North,0,0.0,0.0,27,0.00,,SCT120,0.00,VWS V14.01,2013-04-12 20:58:00,
2013-04-12 17:03:00,87.1,49.1,29.94,North,0,0.0,0.0,27,0.00,,SCT120,0.00,VWS V14.01,2013-04-12 21:03:00,
2013-04-12 17:08:00,87.6,48.5,29.94,North,0,0.0,0.0,26,0.00,,SCT120,0.00,VWS V14.01,2013-04-12 21:08:00,
2013-04-12 17:13:00,88.0,47.8,29.94,North,0,0.0,0.0,25,0.00,,SCT120,0.00,VWS V14.01,2013-04-12 21:13:00,
2013-04-12 17:18:00,88.2,46.9,29.94,North,0,0.0,0.0,24,0.00,,SCT120,0.00,VWS V14.01,2013-04-12 21:18:00,
2013-04-12 17:23:00,88.3,44.7,29.94,North,0,0.0,0.0,22,0.00,,SCT120,0.00,VWS V14.01,2013-04-12 21:23:00,
2013-04-12 17:28:00,88.2,45.7,29.94,North,0,0.0,0.0,23,0.00,,SCT120,0.00,VWS V14.01,2013-04-12 21:28:00,
2013-04-12 17:33:00,87.6,46.4,29.94,North,0,0.0,0.0,24,0.00,,SCT120,0.00,VWS V14.01,2013-04-12 21:33:00,
2013-04-12 17:38:00,87.1,46.0,29.94,North,0,0.0,0.0,24,0.00,,SCT120,0.00,VWS V14.01,2013-04-12 21:38:00,
2013-04-12 17:43:00,86.2,48.3,29.94,North,0,0.0,0.0,27,0.00,,SCT120,0.00,VWS V14.01,2013-04-12 21:43:00,
2013-04-12 17:48:00,85.8,49.0,29.94,North,0,0.0,0.0,28,0.00,,SCT120,0.00,VWS V14.01,2013-04-12 21:48:00,
2013-04-12 17:53:00,86.0,48.2,29.94,North,0,0.0,0.0,27,0.00,,SCT120,0.00,VWS V14.01,2013-04-12 21:53:00,
2013-04-12 17:58:00,85.6,47.9,29.94,North,0,0.0,0.0,27,0.00,,SCT120,0.00,VWS V14.01,2013-04-12 21:58:00,
2013-04-12 18:03:00,85.3,48.5,29.94,North,0,0.0,0.0,28,0.00,,SCT120,0.00,VWS V14.01,2013-04-12 22:03:00,
2013-04-12 18:08:00,86.2,49.3,29.94,North,0,0.0,0.0,28,0.00,,SCT120,0.00,VWS V14.01,2013-04-12 22:08:00,
2013-04-12 18:13:00,86.7,49.8,29.94,North,0,0.0,0.0,28,0.00,,SCT120,0.00,VWS V14.01,2013-04-12 22:13:00,
2013-04-12 18:18:00,85.8,49.9,29.94,North,0,0.0,0.0,29,0.00,,SCT120,0.00,VWS V14.01,2013-04-12 22:18:00,
2013-04-12 18:23:00,85.1,50.2,29.94,North,0,0.0,0.0,30,0.00,,SCT120,0.00,VWS V14.01,2013-04-12 22:23:00,
2013-04-12 18:28:00,84.7,50.8,29.94,North,0,0.0,0.0,31,0.00,,SCT120,0.00,VWS V14.01,2013-04-12 22:28:00,
2013-04-12 18:33:00,84.6,50.6,29.94,North,0,0.0,0.0,31,0.00,,SCT120,0.00,VWS V14.01,2013-04-12 22:33:00,
2013-04-12 18:38:00,84.2,50.3,29.94,North,0,0.0,0.0,31,0.00,,SCT120,0.00,VWS V14.01,2013-04-12 22:38:00,
2013-04-12 18:43:00,84.2,50.3,29.97,North,0,0.0,0.0,31,0.00,,SCT120,0.00,VWS V14.01,2013-04-12 22:43:00,
2013-04-12 18:48:00,84.0,51.0,29.97,North,0,0.0,0.0,32,0.00,,SCT120,0.00,VWS V14.01,2013-04-12 22:48:00,
2013-04-12 18:53:00,84.0,51.0,29.97,North,0,0.0,0.0,32,0.00,,SCT120,0.00,VWS V14.01,2013-04-12 22:53:00,
2013-04-12 18:58:00,83.8,50.9,29.97,North,0,0.0,0.0,32,0.00,,SCT120,0.00,VWS V14.01,2013-04-12 22:58:00,
2013-04-12 19:03:00,83.8,50.9,29.97,North,0,0.0,0.0,32,0.00,,SCT120,0.00,VWS V14.01,2013-04-12 23:03:00,
2013-04-12 19:08:00,83.7,50.7,29.97,North,0,0.0,0.0,32,0.00,,SCT120,0.00,VWS V14.01,2013-04-12 23:08:00,
2013-04-12 19:13:00,83.5,50.5,29.97,North,0,0.0,0.0,32,0.00,,SCT120,0.00,VWS V14.01,2013-04-12 23:13:00,
2013-04-12 19:18:00,83.1,51.1,29.97,North,0,0.0,0.0,33,0.00,,SCT120,0.00,VWS V14.01,2013-04-12 23:18:00,
2013-04-12 19:23:00,82.8,51.6,29.97,North,0,0.0,0.0,34,0.00,,SCT120,0.00,VWS V14.01,2013-04-12 23:23:00,
2013-04-12 19:28:00,82.8,51.6,29.97,North,0,0.0,0.0,34,0.00,,SCT120,0.00,VWS V14.01,2013-04-12 23:28:00,
2013-04-12 19:33:00,82.8,52.3,29.97,North,0,0.0,0.0,35,0.00,,SCT120,0.00,VWS V14.01,2013-04-12 23:33:00,
2013-04-12 19:38:00,82.6,53.0,29.97,North,0,0.0,0.0,36,0.00,,SCT120,0.00,VWS V14.01,2013-04-12 23:38:00,
2013-04-12 19:43:00,82.6,53.7,29.97,North,0,0.0,0.0,37,0.00,,SCT120,0.00,VWS V14.01,2013-04-12 23:43:00,
2013-04-12 19:48:00,82.6,53.7,29.97,North,0,0.0,0.0,37,0.00,,SCT120,0.00,VWS V14.01,2013-04-12 23:48:00,
2013-04-12 19:53:00,82.4,54.3,29.97,North,0,0.0,0.0,38,0.00,,SCT120,0.00,VWS V14.01,2013-04-12 23:53:00,
2013-04-12 19:58:00,82.0,54.7,29.97,North,0,0.0,0.0,39,0.00,,SCT120,0.00,VWS V14.01,2013-04-12 23:58:00,
2013-04-12 20:03:00,81.9,54.5,29.97,North,0,0.0,0.0,39,0.00,,SCT120,0.00,VWS V14.01,2013-04-13 00:03:00,
2013-04-12 20:08:00,81.9,55.2,29.97,North,0,0.0,0.0,40,0.00,,SCT120,0.00,VWS V14.01,2013-04-13 00:08:00,
2013-04-12 20:13:00,81.9,54.5,30.00,North,0,0.0,0.0,39,0.00,,SCT120,0.00,VWS V14.01,2013-04-13 00:13:00,
2013-04-12 20:18:00,81.7,55.0,30.00,North,0,0.0,0.0,40,0.00,,SCT120,0.00,VWS V14.01,2013-04-13 00:18:00,
2013-04-12 20:23:00,81.7,55.0,30.00,North,0,0.0,0.0,40,0.00,,SCT120,0.00,VWS V14.01,2013-04-13 00:23:00,
2013-04-12 20:28:00,81.5,54.9,30.00,North,0,0.0,0.0,40,0.00,,SCT120,0.00,VWS V14.01,2013-04-13 00:28:00,
2013-04-12 20:33:00,81.3,54.7,30.00,North,0,0.0,0.0,40,0.00,,SCT120,0.00,VWS V14.01,2013-04-13 00:33:00,
2013-04-12 20:38:00,81.3,55.4,30.00,North,0,0.0,0.0,41,0.00,,SCT120,0.00,VWS V14.01,2013-04-13 00:38:00,
2013-04-12 20:43:00,81.1,55.2,30.00,North,0,0.0,0.0,41,0.00,,SCT120,0.00,VWS V14.01,2013-04-13 00:43:00,
2013-04-12 20:48:00,81.1,54.5,30.00,North,0,0.0,0.0,40,0.00,,SCT120,0.00,VWS V14.01,2013-04-13 00:48:00,
2013-04-12 20:53:00,81.1,54.5,30.00,North,0,0.0,0.0,40,0.00,,SCT120,0.00,VWS V14.01,2013-04-13 00:53:00,
2013-04-12 20:58:00,81.0,54.4,30.00,North,0,0.0,0.0,40,0.00,,SCT120,0.00,VWS V14.01,2013-04-13 00:58:00,
2013-04-12 21:03:00,80.8,54.9,30.00,North,0,0.0,0.0,41,0.00,,SCT120,0.00,VWS V14.01,2013-04-13 01:03:00,
2013-04-12 21:08:00,80.8,54.9,30.00,North,0,0.0,0.0,41,0.00,,SCT120,0.00,VWS V14.01,2013-04-13 01:08:00,
2013-04-12 21:13:00,80.8,54.9,30.00,North,0,0.0,0.0,41,0.00,,SCT120,0.00,VWS V14.01,2013-04-13 01:13:00,
2013-04-12 21:18:00,80.6,54.8,30.00,North,0,0.0,0.0,41,0.00,,SCT120,0.00,VWS V14.01,2013-04-13 01:18:00,
2013-04-12 21:23:00,80.4,55.2,30.00,North,0,0.0,0.0,42,0.00,,SCT120,0.00,VWS V14.01,2013-04-13 01:23:00,
2013-04-12 21:28:00,80.6,54.8,30.00,North,0,0.0,0.0,41,0.00,,SCT120,0.00,VWS V14.01,2013-04-13 01:28:00,
2013-04-12 21:33:00,80.6,54.8,30.00,North,0,0.0,0.0,41,0.00,,SCT120,0.00,VWS V14.01,2013-04-13 01:33:00,
2013-04-12 21:38:00,80.4,55.2,30.00,North,0,0.0,0.0,42,0.00,,SCT120,0.00,VWS V14.01,2013-04-13 01:38:00,
2013-04-12 21:43:00,80.4,55.2,30.00,North,0,0.0,0.0,42,0.00,,SCT120,0.00,VWS V14.01,2013-04-13 01:43:00,
2013-04-12 21:48:00,80.4,55.2,30.00,North,0,0.0,0.0,42,0.00,,SCT120,0.00,VWS V14.01,2013-04-13 01:48:00,
2013-04-12 21:53:00,80.4,55.2,30.00,North,0,0.0,0.0,42,0.00,,SCT120,0.00,VWS V14.01,2013-04-13 01:53:00,
2013-04-12 21:58:00,80.4,55.2,30.03,North,0,0.0,0.0,42,0.00,,SCT120,0.00,VWS V14.01,2013-04-13 01:58:00,
2013-04-12 22:03:00,80.4,55.2,30.03,North,0,0.0,0.0,42,0.00,,SCT120,0.00,VWS V14.01,2013-04-13 02:03:00,
2013-04-12 22:08:00,80.2,56.4,30.03,North,0,0.0,0.0,44,0.00,,SCT120,0.00,VWS V14.01,2013-04-13 02:08:00,
2013-04-12 22:13:00,79.9,56.0,30.03,North,0,0.0,0.0,44,0.00,,SCT120,0.00,VWS V14.01,2013-04-13 02:13:00,
2013-04-12 22:18:00,79.7,55.9,30.03,North,0,0.0,0.0,44,0.00,,SCT120,0.00,VWS V14.01,2013-04-13 02:18:00,
2013-04-12 22:23:00,79.7,55.9,30.03,North,0,0.0,0.0,44,0.00,,SCT120,0.00,VWS V14.01,2013-04-13 02:23:00,
2013-04-12 22:28:00,79.7,56.5,30.03,North,0,0.0,0.0,45,0.00,,SCT120,0.00,VWS V14.01,2013-04-13 02:28:00,
2013-04-12 22:33:00,79.7,56.5,30.03,North,0,0.0,0.0,45,0.00,,SCT120,0.00,VWS V14.01,2013-04-13 02:33:00,
2013-04-12 22:38:00,79.7,56.5,30.03,North,0,0.0,0.0,45,0.00,,SCT120,0.00,VWS V14.01,2013-04-13 02:38:00,
2013-04-12 22:43:00,79.7,57.1,30.03,North,0,0.0,0.0,46,0.00,,SCT120,0.00,VWS V14.01,2013-04-13 02:43:00,
2013-04-12 22:48:00,79.7,57.1,30.03,North,0,0.0,0.0,46,0.00,,SCT120,0.00,VWS V14.01,2013-04-13 02:48:00,
2013-04-12 22:53:00,79.7,57.1,30.03,North,0,0.0,0.0,46,0.00,,SCT120,0.00,VWS V14.01,2013-04-13 02:53:00,
2013-04-12 22:58:00,79.5,57.0,30.00,North,0,0.0,0.0,46,0.00,,SCT120,0.00,VWS V14.01,2013-04-13 02:58:00,
2013-04-12 23:03:00,79.5,57.5,30.00,North,0,0.0,0.0,47,0.00,,SCT120,0.00,VWS V14.01,2013-04-13 03:03:00,
2013-04-12 23:08:00,79.5,57.5,30.00,North,0,0.0,0.0,47,0.00,,SCT120,0.00,VWS V14.01,2013-04-13 03:08:00,
2013-04-12 23:13:00,79.3,58.0,30.00,North,0,0.0,0.0,48,0.00,,SCT120,0.00,VWS V14.01,2013-04-13 03:13:00,
2013-04-12 23:18:00,79.3,58.0,30.00,North,0,0.0,0.0,48,0.00,,SCT120,0.00,VWS V14.01,2013-04-13 03:18:00,
2013-04-12 23:23:00,79.2,58.4,30.00,North,0,0.0,0.0,49,0.00,,SCT120,0.00,VWS V14.01,2013-04-13 03:23:00,
2013-04-12 23:28:00,79.3,58.5,30.00,North,0,0.0,0.0,49,0.00,,SCT120,0.00,VWS V14.01,2013-04-13 03:28:00,
2013-04-12 23:33:00,79.3,59.1,30.00,North,0,0.0,0.0,50,0.00,,SCT120,0.00,VWS V14.01,2013-04-13 03:33:00,
2013-04-12 23:38:00,79.5,59.3,30.00,North,0,0.0,0.0,50,0.00,,SCT120,0.00,VWS V14.01,2013-04-13 03:38:00,
2013-04-12 23:43:00,79.3,58.5,30.00,North,0,0.0,0.0,49,0.00,,SCT120,0.00,VWS V14.01,2013-04-13 03:43:00,
2013-04-12 23:48:00,79.3,59.1,30.00,North,0,0.0,0.0,50,0.00,,SCT120,0.00,VWS V14.01,2013-04-13 03:48:00,
2013-04-12 23:53:00,79.2,58.9,30.00,North,0,0.0,0.0,50,0.00,,SCT120,0.00,VWS V14.01,2013-04-13 03:53:00,
2013-04-12 23:58:00,79.2,58.9,30.00,North,0,0.0,0.0,50,0.00,,SCT120,0.00,VWS V14.01,2013-04-13 03:58:00,